sensor_id;sensor_type;location;lat;lon;timestamp;P1;durP1;ratioP1;P2;durP2;ratioP2
16845;SDS011;8539;53.188;8.696;2022-08-18T00:01:21;12.38;;;10.30;;
16845;SDS011;8539;53.188;8.696;2022-08-18T00:03:49;10.85;;;9.65;;
16845;SDS011;8539;53.188;8.696;2022-08-18T00:06:16;12.70;;;10.30;;
16845;SDS011;8539;53.188;8.696;2022-08-18T00:08:43;9.88;;;8.70;;
16845;SDS011;8539;53.188;8.696;2022-08-18T00:11:09;11.73;;;10.25;;
16845;SDS011;8539;53.188;8.696;2022-08-18T00:13:35;11.13;;;10.02;;
16845;SDS011;8539;53.188;8.696;2022-08-18T00:16:01;12.00;;;10.80;;
16845;SDS011;8539;53.188;8.696;2022-08-18T00:18:28;11.60;;;8.90;;
16845;SDS011;8539;53.188;8.696;2022-08-18T00:20:54;11.30;;;9.68;;
16845;SDS011;8539;53.188;8.696;2022-08-18T00:23:20;14.45;;;9.80;;
16845;SDS011;8539;53.188;8.696;2022-08-18T00:25:47;14.95;;;10.85;;
16845;SDS011;8539;53.188;8.696;2022-08-18T00:28:14;11.40;;;10.07;;
16845;SDS011;8539;53.188;8.696;2022-08-18T00:30:40;10.27;;;9.35;;
16845;SDS011;8539;53.188;8.696;2022-08-18T00:33:07;11.68;;;10.55;;
16845;SDS011;8539;53.188;8.696;2022-08-18T00:35:37;12.50;;;11.18;;
16845;SDS011;8539;53.188;8.696;2022-08-18T00:38:04;12.35;;;10.43;;
16845;SDS011;8539;53.188;8.696;2022-08-18T00:40:36;12.95;;;10.55;;
16845;SDS011;8539;53.188;8.696;2022-08-18T00:43:11;12.13;;;9.20;;
16845;SDS011;8539;53.188;8.696;2022-08-18T00:45:42;11.85;;;9.10;;
16845;SDS011;8539;53.188;8.696;2022-08-18T00:48:09;11.52;;;9.52;;
16845;SDS011;8539;53.188;8.696;2022-08-18T00:50:38;11.45;;;8.80;;
16845;SDS011;8539;53.188;8.696;2022-08-18T00:53:12;11.13;;;9.93;;
16845;SDS011;8539;53.188;8.696;2022-08-18T00:55:43;11.05;;;9.70;;
16845;SDS011;8539;53.188;8.696;2022-08-18T00:58:20;11.40;;;10.15;;
16845;SDS011;8539;53.188;8.696;2022-08-18T01:00:51;15.65;;;12.20;;
16845;SDS011;8539;53.188;8.696;2022-08-18T01:03:19;13.73;;;12.30;;
16845;SDS011;8539;53.188;8.696;2022-08-18T01:05:52;14.10;;;12.63;;
16845;SDS011;8539;53.188;8.696;2022-08-18T01:08:32;16.02;;;14.48;;
16845;SDS011;8539;53.188;8.696;2022-08-18T01:10:59;18.33;;;14.98;;
16845;SDS011;8539;53.188;8.696;2022-08-18T01:13:28;19.13;;;16.65;;
16845;SDS011;8539;53.188;8.696;2022-08-18T01:15:57;22.50;;;18.77;;
16845;SDS011;8539;53.188;8.696;2022-08-18T01:18:24;26.23;;;20.45;;
16845;SDS011;8539;53.188;8.696;2022-08-18T01:21:11;21.73;;;19.05;;
16845;SDS011;8539;53.188;8.696;2022-08-18T01:23:57;23.13;;;19.35;;
16845;SDS011;8539;53.188;8.696;2022-08-18T01:26:24;25.65;;;22.75;;
16845;SDS011;8539;53.188;8.696;2022-08-18T01:28:53;28.85;;;22.58;;
16845;SDS011;8539;53.188;8.696;2022-08-18T01:31:32;24.23;;;18.50;;
16845;SDS011;8539;53.188;8.696;2022-08-18T01:34:04;27.38;;;22.63;;
16845;SDS011;8539;53.188;8.696;2022-08-18T01:36:32;34.35;;;24.67;;
16845;SDS011;8539;53.188;8.696;2022-08-18T01:39:03;35.30;;;23.40;;
16845;SDS011;8539;53.188;8.696;2022-08-18T01:41:31;32.78;;;22.67;;
16845;SDS011;8539;53.188;8.696;2022-08-18T01:43:57;28.67;;;23.85;;
16845;SDS011;8539;53.188;8.696;2022-08-18T01:46:25;33.40;;;24.65;;
16845;SDS011;8539;53.188;8.696;2022-08-18T01:48:53;35.58;;;26.55;;
16845;SDS011;8539;53.188;8.696;2022-08-18T01:51:20;30.98;;;21.73;;
16845;SDS011;8539;53.188;8.696;2022-08-18T01:53:46;31.70;;;24.15;;
16845;SDS011;8539;53.188;8.696;2022-08-18T01:56:13;28.42;;;24.08;;
16845;SDS011;8539;53.188;8.696;2022-08-18T01:58:42;31.38;;;24.83;;
16845;SDS011;8539;53.188;8.696;2022-08-18T02:01:10;43.28;;;27.42;;
16845;SDS011;8539;53.188;8.696;2022-08-18T02:03:38;35.28;;;26.92;;
16845;SDS011;8539;53.188;8.696;2022-08-18T02:06:09;33.38;;;26.38;;
16845;SDS011;8539;53.188;8.696;2022-08-18T02:08:38;34.40;;;24.88;;
16845;SDS011;8539;53.188;8.696;2022-08-18T02:11:05;30.02;;;24.70;;
16845;SDS011;8539;53.188;8.696;2022-08-18T02:13:32;33.03;;;23.88;;
16845;SDS011;8539;53.188;8.696;2022-08-18T02:15:59;37.88;;;27.02;;
16845;SDS011;8539;53.188;8.696;2022-08-18T02:18:31;33.63;;;24.33;;
16845;SDS011;8539;53.188;8.696;2022-08-18T02:21:33;32.03;;;25.10;;
16845;SDS011;8539;53.188;8.696;2022-08-18T02:23:52;41.28;;;27.88;;
16845;SDS011;8539;53.188;8.696;2022-08-18T02:26:19;37.63;;;26.05;;
16845;SDS011;8539;53.188;8.696;2022-08-18T02:28:45;38.70;;;25.75;;
16845;SDS011;8539;53.188;8.696;2022-08-18T02:31:16;39.28;;;26.67;;
16845;SDS011;8539;53.188;8.696;2022-08-18T02:33:44;41.05;;;27.65;;
16845;SDS011;8539;53.188;8.696;2022-08-18T02:36:11;30.10;;;24.48;;
16845;SDS011;8539;53.188;8.696;2022-08-18T02:38:39;34.47;;;24.13;;
16845;SDS011;8539;53.188;8.696;2022-08-18T02:41:07;40.65;;;28.38;;
16845;SDS011;8539;53.188;8.696;2022-08-18T02:43:36;34.05;;;28.02;;
16845;SDS011;8539;53.188;8.696;2022-08-18T02:46:04;35.47;;;28.60;;
16845;SDS011;8539;53.188;8.696;2022-08-18T02:48:31;38.70;;;29.25;;
16845;SDS011;8539;53.188;8.696;2022-08-18T02:53:39;38.92;;;28.95;;
16845;SDS011;8539;53.188;8.696;2022-08-18T02:56:08;36.88;;;28.95;;
16845;SDS011;8539;53.188;8.696;2022-08-18T02:58:54;43.28;;;29.88;;
16845;SDS011;8539;53.188;8.696;2022-08-18T03:01:28;47.08;;;31.02;;
16845;SDS011;8539;53.188;8.696;2022-08-18T03:03:57;37.13;;;28.23;;
16845;SDS011;8539;53.188;8.696;2022-08-18T03:06:24;42.45;;;28.02;;
16845;SDS011;8539;53.188;8.696;2022-08-18T03:08:52;41.05;;;28.92;;
16845;SDS011;8539;53.188;8.696;2022-08-18T03:11:24;35.20;;;26.30;;
16845;SDS011;8539;53.188;8.696;2022-08-18T03:13:52;42.80;;;30.23;;
16845;SDS011;8539;53.188;8.696;2022-08-18T03:16:21;37.35;;;28.02;;
16845;SDS011;8539;53.188;8.696;2022-08-18T03:18:49;35.35;;;28.77;;
16845;SDS011;8539;53.188;8.696;2022-08-18T03:21:19;36.53;;;25.67;;
16845;SDS011;8539;53.188;8.696;2022-08-18T03:23:47;33.75;;;27.40;;
16845;SDS011;8539;53.188;8.696;2022-08-18T03:26:15;40.17;;;29.02;;
16845;SDS011;8539;53.188;8.696;2022-08-18T03:28:44;36.30;;;27.85;;
16845;SDS011;8539;53.188;8.696;2022-08-18T03:31:13;38.22;;;28.08;;
16845;SDS011;8539;53.188;8.696;2022-08-18T03:33:42;38.78;;;27.95;;
16845;SDS011;8539;53.188;8.696;2022-08-18T03:36:16;40.60;;;28.08;;
16845;SDS011;8539;53.188;8.696;2022-08-18T03:38:45;44.03;;;25.90;;
16845;SDS011;8539;53.188;8.696;2022-08-18T03:41:16;36.83;;;26.17;;
16845;SDS011;8539;53.188;8.696;2022-08-18T03:43:44;36.60;;;26.17;;
16845;SDS011;8539;53.188;8.696;2022-08-18T03:46:12;37.60;;;27.13;;
16845;SDS011;8539;53.188;8.696;2022-08-18T03:48:40;35.80;;;24.52;;
16845;SDS011;8539;53.188;8.696;2022-08-18T03:51:09;36.22;;;23.70;;
16845;SDS011;8539;53.188;8.696;2022-08-18T03:53:39;35.55;;;24.52;;
16845;SDS011;8539;53.188;8.696;2022-08-18T03:56:06;36.22;;;24.58;;
16845;SDS011;8539;53.188;8.696;2022-08-18T03:58:47;34.45;;;24.13;;
16845;SDS011;8539;53.188;8.696;2022-08-18T04:01:17;41.17;;;26.90;;
16845;SDS011;8539;53.188;8.696;2022-08-18T04:03:45;33.58;;;23.15;;
16845;SDS011;8539;53.188;8.696;2022-08-18T04:06:15;33.63;;;23.50;;
16845;SDS011;8539;53.188;8.696;2022-08-18T04:08:43;33.75;;;21.02;;
16845;SDS011;8539;53.188;8.696;2022-08-18T04:11:11;33.75;;;23.65;;
16845;SDS011;8539;53.188;8.696;2022-08-18T04:13:40;32.80;;;23.27;;
16845;SDS011;8539;53.188;8.696;2022-08-18T04:16:06;30.85;;;21.00;;
16845;SDS011;8539;53.188;8.696;2022-08-18T04:18:52;28.77;;;22.85;;
16845;SDS011;8539;53.188;8.696;2022-08-18T04:21:29;33.70;;;22.27;;
16845;SDS011;8539;53.188;8.696;2022-08-18T04:23:58;32.03;;;21.60;;
16845;SDS011;8539;53.188;8.696;2022-08-18T04:26:27;39.78;;;23.08;;
16845;SDS011;8539;53.188;8.696;2022-08-18T04:28:54;27.05;;;21.10;;
16845;SDS011;8539;53.188;8.696;2022-08-18T04:31:20;31.52;;;21.33;;
16845;SDS011;8539;53.188;8.696;2022-08-18T04:34:04;33.70;;;24.33;;
16845;SDS011;8539;53.188;8.696;2022-08-18T04:36:40;31.65;;;22.38;;
16845;SDS011;8539;53.188;8.696;2022-08-18T04:39:09;25.77;;;21.45;;
16845;SDS011;8539;53.188;8.696;2022-08-18T04:41:41;28.60;;;21.77;;
16845;SDS011;8539;53.188;8.696;2022-08-18T04:44:09;30.00;;;22.92;;
16845;SDS011;8539;53.188;8.696;2022-08-18T04:46:38;28.63;;;21.35;;
16845;SDS011;8539;53.188;8.696;2022-08-18T04:49:07;33.97;;;24.10;;
16845;SDS011;8539;53.188;8.696;2022-08-18T04:51:35;33.90;;;25.25;;
16845;SDS011;8539;53.188;8.696;2022-08-18T04:54:08;35.47;;;24.92;;
16845;SDS011;8539;53.188;8.696;2022-08-18T04:56:37;40.50;;;25.77;;
16845;SDS011;8539;53.188;8.696;2022-08-18T04:59:05;39.25;;;25.55;;
16845;SDS011;8539;53.188;8.696;2022-08-18T05:01:42;36.80;;;24.77;;
16845;SDS011;8539;53.188;8.696;2022-08-18T05:04:10;31.92;;;25.48;;
16845;SDS011;8539;53.188;8.696;2022-08-18T05:06:39;46.97;;;27.90;;
16845;SDS011;8539;53.188;8.696;2022-08-18T05:09:06;44.40;;;27.90;;
16845;SDS011;8539;53.188;8.696;2022-08-18T05:11:34;35.58;;;28.30;;
16845;SDS011;8539;53.188;8.696;2022-08-18T05:14:03;50.35;;;31.63;;
16845;SDS011;8539;53.188;8.696;2022-08-18T05:16:31;41.63;;;27.98;;
16845;SDS011;8539;53.188;8.696;2022-08-18T05:19:02;40.00;;;28.35;;
16845;SDS011;8539;53.188;8.696;2022-08-18T05:21:30;43.08;;;28.45;;
16845;SDS011;8539;53.188;8.696;2022-08-18T05:23:58;42.25;;;28.42;;
16845;SDS011;8539;53.188;8.696;2022-08-18T05:26:25;48.83;;;27.70;;
16845;SDS011;8539;53.188;8.696;2022-08-18T05:28:52;43.08;;;27.77;;
16845;SDS011;8539;53.188;8.696;2022-08-18T05:31:21;35.35;;;27.20;;
16845;SDS011;8539;53.188;8.696;2022-08-18T05:33:54;51.83;;;28.52;;
16845;SDS011;8539;53.188;8.696;2022-08-18T05:36:41;41.25;;;28.55;;
16845;SDS011;8539;53.188;8.696;2022-08-18T05:39:23;45.53;;;28.50;;
16845;SDS011;8539;53.188;8.696;2022-08-18T05:42:02;42.03;;;27.85;;
16845;SDS011;8539;53.188;8.696;2022-08-18T05:44:38;42.33;;;27.70;;
16845;SDS011;8539;53.188;8.696;2022-08-18T05:47:10;45.60;;;26.60;;
16845;SDS011;8539;53.188;8.696;2022-08-18T05:49:51;40.72;;;26.15;;
16845;SDS011;8539;53.188;8.696;2022-08-18T05:55:22;47.47;;;24.30;;
16845;SDS011;8539;53.188;8.696;2022-08-18T05:58:14;37.08;;;23.85;;
16845;SDS011;8539;53.188;8.696;2022-08-18T06:00:51;39.10;;;24.83;;
16845;SDS011;8539;53.188;8.696;2022-08-18T06:03:25;42.22;;;24.20;;
16845;SDS011;8539;53.188;8.696;2022-08-18T06:06:07;39.60;;;23.15;;
16845;SDS011;8539;53.188;8.696;2022-08-18T06:08:45;42.00;;;23.80;;
16845;SDS011;8539;53.188;8.696;2022-08-18T06:11:17;35.28;;;21.15;;
16845;SDS011;8539;53.188;8.696;2022-08-18T06:13:43;41.25;;;22.85;;
16845;SDS011;8539;53.188;8.696;2022-08-18T06:24:40;35.47;;;19.92;;
16845;SDS011;8539;53.188;8.696;2022-08-18T06:35:12;28.10;;;19.00;;
16845;SDS011;8539;53.188;8.696;2022-08-18T06:37:47;30.80;;;19.58;;
16845;SDS011;8539;53.188;8.696;2022-08-18T06:46:35;27.48;;;17.30;;
16845;SDS011;8539;53.188;8.696;2022-08-18T06:49:11;43.45;;;17.63;;
16845;SDS011;8539;53.188;8.696;2022-08-18T06:51:46;31.85;;;17.98;;
16845;SDS011;8539;53.188;8.696;2022-08-18T06:56:46;29.85;;;17.80;;
16845;SDS011;8539;53.188;8.696;2022-08-18T07:02:00;30.60;;;16.05;;
16845;SDS011;8539;53.188;8.696;2022-08-18T07:04:42;25.80;;;15.55;;
16845;SDS011;8539;53.188;8.696;2022-08-18T07:10:06;31.35;;;17.42;;
16845;SDS011;8539;53.188;8.696;2022-08-18T07:13:04;30.20;;;17.60;;
16845;SDS011;8539;53.188;8.696;2022-08-18T07:15:37;27.15;;;16.70;;
16845;SDS011;8539;53.188;8.696;2022-08-18T07:18:05;26.80;;;16.55;;
16845;SDS011;8539;53.188;8.696;2022-08-18T07:20:50;26.08;;;16.70;;
16845;SDS011;8539;53.188;8.696;2022-08-18T07:25:51;30.30;;;17.90;;
16845;SDS011;8539;53.188;8.696;2022-08-18T07:28:47;23.50;;;17.45;;
16845;SDS011;8539;53.188;8.696;2022-08-18T07:36:39;25.00;;;18.40;;
16845;SDS011;8539;53.188;8.696;2022-08-18T07:44:44;28.83;;;19.92;;
16845;SDS011;8539;53.188;8.696;2022-08-18T07:47:17;29.67;;;20.15;;
16845;SDS011;8539;53.188;8.696;2022-08-18T07:49:51;30.05;;;19.88;;
16845;SDS011;8539;53.188;8.696;2022-08-18T07:52:43;27.52;;;21.13;;
16845;SDS011;8539;53.188;8.696;2022-08-18T07:55:36;28.27;;;21.20;;
16845;SDS011;8539;53.188;8.696;2022-08-18T08:07:20;26.75;;;18.77;;
16845;SDS011;8539;53.188;8.696;2022-08-18T08:10:14;25.00;;;19.48;;
16845;SDS011;8539;53.188;8.696;2022-08-18T08:16:00;30.35;;;19.67;;
16845;SDS011;8539;53.188;8.696;2022-08-18T08:21:39;30.48;;;20.83;;
16845;SDS011;8539;53.188;8.696;2022-08-18T08:24:21;27.23;;;19.70;;
16845;SDS011;8539;53.188;8.696;2022-08-18T08:27:08;22.98;;;18.30;;
16845;SDS011;8539;53.188;8.696;2022-08-18T08:30:07;26.73;;;18.33;;
16845;SDS011;8539;53.188;8.696;2022-08-18T08:32:46;28.20;;;19.33;;
16845;SDS011;8539;53.188;8.696;2022-08-18T08:35:37;26.35;;;17.27;;
16845;SDS011;8539;53.188;8.696;2022-08-18T08:38:14;21.67;;;14.95;;
16845;SDS011;8539;53.188;8.696;2022-08-18T08:40:59;24.20;;;17.13;;
16845;SDS011;8539;53.188;8.696;2022-08-18T08:43:32;27.65;;;18.23;;
16845;SDS011;8539;53.188;8.696;2022-08-18T08:48:49;24.63;;;16.70;;
16845;SDS011;8539;53.188;8.696;2022-08-18T08:51:29;23.25;;;15.38;;
16845;SDS011;8539;53.188;8.696;2022-08-18T08:54:05;21.25;;;15.30;;
16845;SDS011;8539;53.188;8.696;2022-08-18T08:56:46;29.13;;;15.65;;
16845;SDS011;8539;53.188;8.696;2022-08-18T08:59:15;20.10;;;13.15;;
16845;SDS011;8539;53.188;8.696;2022-08-18T09:04:58;17.08;;;15.00;;
16845;SDS011;8539;53.188;8.696;2022-08-18T09:15:34;15.13;;;12.75;;
16845;SDS011;8539;53.188;8.696;2022-08-18T09:23:45;19.13;;;11.82;;
16845;SDS011;8539;53.188;8.696;2022-08-18T09:40:18;22.02;;;12.57;;
16845;SDS011;8539;53.188;8.696;2022-08-18T09:43:13;20.75;;;12.52;;
16845;SDS011;8539;53.188;8.696;2022-08-18T09:45:56;13.45;;;11.65;;
16845;SDS011;8539;53.188;8.696;2022-08-18T09:50:57;22.45;;;11.25;;
16845;SDS011;8539;53.188;8.696;2022-08-18T09:53:50;12.45;;;10.40;;
16845;SDS011;8539;53.188;8.696;2022-08-18T10:00:15;16.95;;;10.32;;
16845;SDS011;8539;53.188;8.696;2022-08-18T10:02:59;14.98;;;9.95;;
16845;SDS011;8539;53.188;8.696;2022-08-18T10:10:47;13.50;;;9.25;;
16845;SDS011;8539;53.188;8.696;2022-08-18T10:19:14;14.52;;;9.50;;
16845;SDS011;8539;53.188;8.696;2022-08-18T10:24:21;13.75;;;7.25;;
16845;SDS011;8539;53.188;8.696;2022-08-18T10:26:58;11.55;;;7.85;;
16845;SDS011;8539;53.188;8.696;2022-08-18T10:39:55;7.90;;;5.32;;
16845;SDS011;8539;53.188;8.696;2022-08-18T11:03:52;9.53;;;6.50;;
16845;SDS011;8539;53.188;8.696;2022-08-18T11:06:47;8.27;;;5.60;;
16845;SDS011;8539;53.188;8.696;2022-08-18T11:09:24;9.88;;;6.13;;
16845;SDS011;8539;53.188;8.696;2022-08-18T11:11:53;8.82;;;5.45;;
16845;SDS011;8539;53.188;8.696;2022-08-18T11:17:25;10.32;;;5.63;;
16845;SDS011;8539;53.188;8.696;2022-08-18T11:19:54;6.60;;;5.90;;
16845;SDS011;8539;53.188;8.696;2022-08-18T11:22:22;6.90;;;6.20;;
16845;SDS011;8539;53.188;8.696;2022-08-18T11:24:50;10.90;;;6.28;;
16845;SDS011;8539;53.188;8.696;2022-08-18T11:27:35;9.55;;;5.60;;
16845;SDS011;8539;53.188;8.696;2022-08-18T11:30:10;10.60;;;5.55;;
16845;SDS011;8539;53.188;8.696;2022-08-18T11:32:37;6.78;;;5.05;;
16845;SDS011;8539;53.188;8.696;2022-08-18T11:37:44;8.73;;;5.38;;
16845;SDS011;8539;53.188;8.696;2022-08-18T11:42:49;8.27;;;5.90;;
16845;SDS011;8539;53.188;8.696;2022-08-18T11:45:45;11.30;;;6.82;;
16845;SDS011;8539;53.188;8.696;2022-08-18T11:53:24;7.78;;;5.53;;
16845;SDS011;8539;53.188;8.696;2022-08-18T11:56:32;12.80;;;5.75;;
16845;SDS011;8539;53.188;8.696;2022-08-18T11:59:07;9.60;;;5.70;;
16845;SDS011;8539;53.188;8.696;2022-08-18T12:01:53;9.50;;;5.60;;
16845;SDS011;8539;53.188;8.696;2022-08-18T12:09:35;7.47;;;4.95;;
16845;SDS011;8539;53.188;8.696;2022-08-18T12:17:48;10.23;;;5.40;;
16845;SDS011;8539;53.188;8.696;2022-08-18T12:20:15;6.57;;;5.35;;
16845;SDS011;8539;53.188;8.696;2022-08-18T12:22:42;10.90;;;5.97;;
16845;SDS011;8539;53.188;8.696;2022-08-18T12:25:12;11.80;;;6.18;;
16845;SDS011;8539;53.188;8.696;2022-08-18T12:27:39;8.88;;;6.22;;
16845;SDS011;8539;53.188;8.696;2022-08-18T12:30:06;8.35;;;4.85;;
16845;SDS011;8539;53.188;8.696;2022-08-18T12:32:34;11.82;;;6.35;;
16845;SDS011;8539;53.188;8.696;2022-08-18T12:35:02;13.38;;;5.65;;
16845;SDS011;8539;53.188;8.696;2022-08-18T12:37:30;8.45;;;5.75;;
16845;SDS011;8539;53.188;8.696;2022-08-18T12:39:57;9.68;;;5.05;;
16845;SDS011;8539;53.188;8.696;2022-08-18T12:42:24;8.63;;;4.93;;
16845;SDS011;8539;53.188;8.696;2022-08-18T12:44:51;8.77;;;5.80;;
16845;SDS011;8539;53.188;8.696;2022-08-18T12:47:19;10.73;;;4.63;;
16845;SDS011;8539;53.188;8.696;2022-08-18T12:49:47;8.77;;;4.90;;
16845;SDS011;8539;53.188;8.696;2022-08-18T12:52:14;9.48;;;4.85;;
16845;SDS011;8539;53.188;8.696;2022-08-18T12:54:41;8.48;;;5.05;;
16845;SDS011;8539;53.188;8.696;2022-08-18T12:57:10;10.15;;;5.20;;
16845;SDS011;8539;53.188;8.696;2022-08-18T12:59:47;8.98;;;4.82;;
16845;SDS011;8539;53.188;8.696;2022-08-18T13:02:14;13.07;;;5.30;;
16845;SDS011;8539;53.188;8.696;2022-08-18T13:04:45;12.45;;;4.97;;
16845;SDS011;8539;53.188;8.696;2022-08-18T13:07:11;10.23;;;5.10;;
16845;SDS011;8539;53.188;8.696;2022-08-18T13:09:40;10.98;;;5.78;;
16845;SDS011;8539;53.188;8.696;2022-08-18T13:12:08;9.75;;;4.53;;
16845;SDS011;8539;53.188;8.696;2022-08-18T13:14:35;9.07;;;4.88;;
16845;SDS011;8539;53.188;8.696;2022-08-18T13:17:02;13.50;;;4.65;;
16845;SDS011;8539;53.188;8.696;2022-08-18T13:19:29;6.45;;;4.63;;
16845;SDS011;8539;53.188;8.696;2022-08-18T13:21:56;7.80;;;4.30;;
16845;SDS011;8539;53.188;8.696;2022-08-18T13:24:22;10.02;;;4.03;;
16845;SDS011;8539;53.188;8.696;2022-08-18T13:26:48;8.63;;;4.75;;
16845;SDS011;8539;53.188;8.696;2022-08-18T13:29:15;7.15;;;4.68;;
16845;SDS011;8539;53.188;8.696;2022-08-18T13:31:43;5.35;;;4.78;;
16845;SDS011;8539;53.188;8.696;2022-08-18T13:34:11;8.52;;;4.72;;
16845;SDS011;8539;53.188;8.696;2022-08-18T13:36:38;11.80;;;4.80;;
16845;SDS011;8539;53.188;8.696;2022-08-18T13:39:18;8.07;;;4.65;;
16845;SDS011;8539;53.188;8.696;2022-08-18T13:41:47;9.65;;;4.72;;
16845;SDS011;8539;53.188;8.696;2022-08-18T13:44:17;9.82;;;4.60;;
16845;SDS011;8539;53.188;8.696;2022-08-18T13:46:45;6.25;;;3.92;;
16845;SDS011;8539;53.188;8.696;2022-08-18T13:49:17;8.77;;;4.43;;
16845;SDS011;8539;53.188;8.696;2022-08-18T13:51:45;6.57;;;4.00;;
16845;SDS011;8539;53.188;8.696;2022-08-18T13:54:23;7.32;;;4.20;;
16845;SDS011;8539;53.188;8.696;2022-08-18T13:56:53;13.95;;;4.95;;
16845;SDS011;8539;53.188;8.696;2022-08-18T13:59:20;8.63;;;5.32;;
16845;SDS011;8539;53.188;8.696;2022-08-18T14:01:48;13.95;;;5.72;;
16845;SDS011;8539;53.188;8.696;2022-08-18T14:04:15;8.18;;;5.65;;
16845;SDS011;8539;53.188;8.696;2022-08-18T14:06:42;11.10;;;5.35;;
16845;SDS011;8539;53.188;8.696;2022-08-18T14:09:09;9.63;;;5.05;;
16845;SDS011;8539;53.188;8.696;2022-08-18T14:11:36;12.10;;;5.65;;
16845;SDS011;8539;53.188;8.696;2022-08-18T14:14:03;15.10;;;5.75;;
16845;SDS011;8539;53.188;8.696;2022-08-18T14:16:31;10.43;;;4.60;;
16845;SDS011;8539;53.188;8.696;2022-08-18T14:19:02;11.80;;;5.07;;
16845;SDS011;8539;53.188;8.696;2022-08-18T14:21:49;7.78;;;5.28;;
16845;SDS011;8539;53.188;8.696;2022-08-18T14:24:36;14.40;;;5.93;;
16845;SDS011;8539;53.188;8.696;2022-08-18T14:27:34;10.68;;;6.07;;
16845;SDS011;8539;53.188;8.696;2022-08-18T14:30:07;9.23;;;4.80;;
16845;SDS011;8539;53.188;8.696;2022-08-18T14:32:41;10.88;;;5.43;;
16845;SDS011;8539;53.188;8.696;2022-08-18T14:35:10;12.45;;;5.97;;
16845;SDS011;8539;53.188;8.696;2022-08-18T14:37:40;11.48;;;4.63;;
16845;SDS011;8539;53.188;8.696;2022-08-18T14:40:07;10.48;;;4.75;;
16845;SDS011;8539;53.188;8.696;2022-08-18T14:42:34;12.85;;;5.18;;
16845;SDS011;8539;53.188;8.696;2022-08-18T14:45:00;8.95;;;5.32;;
16845;SDS011;8539;53.188;8.696;2022-08-18T14:47:27;13.23;;;5.28;;
16845;SDS011;8539;53.188;8.696;2022-08-18T14:49:54;12.75;;;5.28;;
16845;SDS011;8539;53.188;8.696;2022-08-18T14:52:22;14.68;;;5.50;;
16845;SDS011;8539;53.188;8.696;2022-08-18T14:54:48;13.00;;;4.82;;
16845;SDS011;8539;53.188;8.696;2022-08-18T14:57:16;11.90;;;5.10;;
16845;SDS011;8539;53.188;8.696;2022-08-18T14:59:43;8.32;;;4.57;;
16845;SDS011;8539;53.188;8.696;2022-08-18T15:02:10;6.60;;;4.13;;
16845;SDS011;8539;53.188;8.696;2022-08-18T15:04:36;6.88;;;5.78;;
16845;SDS011;8539;53.188;8.696;2022-08-18T15:07:03;10.18;;;5.05;;
16845;SDS011;8539;53.188;8.696;2022-08-18T15:09:30;14.52;;;5.97;;
16845;SDS011;8539;53.188;8.696;2022-08-18T15:11:58;8.45;;;5.43;;
16845;SDS011;8539;53.188;8.696;2022-08-18T15:14:25;9.40;;;4.22;;
16845;SDS011;8539;53.188;8.696;2022-08-18T15:17:03;12.20;;;4.70;;
16845;SDS011;8539;53.188;8.696;2022-08-18T15:19:33;12.65;;;5.63;;
16845;SDS011;8539;53.188;8.696;2022-08-18T15:22:00;7.45;;;4.53;;
16845;SDS011;8539;53.188;8.696;2022-08-18T15:24:46;8.38;;;5.35;;
16845;SDS011;8539;53.188;8.696;2022-08-18T15:27:34;8.45;;;5.70;;
16845;SDS011;8539;53.188;8.696;2022-08-18T15:30:06;7.72;;;4.35;;
16845;SDS011;8539;53.188;8.696;2022-08-18T15:32:35;9.20;;;5.53;;
16845;SDS011;8539;53.188;8.696;2022-08-18T15:35:03;10.85;;;5.22;;
16845;SDS011;8539;53.188;8.696;2022-08-18T15:37:33;10.23;;;5.05;;
16845;SDS011;8539;53.188;8.696;2022-08-18T15:40:21;8.05;;;5.10;;
16845;SDS011;8539;53.188;8.696;2022-08-18T15:42:52;11.05;;;5.25;;
16845;SDS011;8539;53.188;8.696;2022-08-18T15:45:27;8.23;;;5.38;;
16845;SDS011;8539;53.188;8.696;2022-08-18T15:48:03;7.85;;;5.22;;
16845;SDS011;8539;53.188;8.696;2022-08-18T15:50:30;9.77;;;5.30;;
16845;SDS011;8539;53.188;8.696;2022-08-18T15:52:58;9.07;;;4.45;;
16845;SDS011;8539;53.188;8.696;2022-08-18T15:55:32;5.63;;;4.50;;
16845;SDS011;8539;53.188;8.696;2022-08-18T15:58:00;9.65;;;4.85;;
16845;SDS011;8539;53.188;8.696;2022-08-18T16:00:28;12.73;;;5.60;;
16845;SDS011;8539;53.188;8.696;2022-08-18T16:02:59;11.73;;;5.25;;
16845;SDS011;8539;53.188;8.696;2022-08-18T16:05:31;8.35;;;4.80;;
16845;SDS011;8539;53.188;8.696;2022-08-18T16:07:59;10.30;;;5.28;;
16845;SDS011;8539;53.188;8.696;2022-08-18T16:10:27;8.85;;;6.50;;
16845;SDS011;8539;53.188;8.696;2022-08-18T16:12:57;6.45;;;4.68;;
16845;SDS011;8539;53.188;8.696;2022-08-18T16:15:24;9.57;;;5.10;;
16845;SDS011;8539;53.188;8.696;2022-08-18T16:17:52;6.93;;;4.57;;
16845;SDS011;8539;53.188;8.696;2022-08-18T16:20:20;6.57;;;4.32;;
16845;SDS011;8539;53.188;8.696;2022-08-18T16:22:51;7.88;;;4.38;;
16845;SDS011;8539;53.188;8.696;2022-08-18T16:25:18;7.93;;;4.93;;
16845;SDS011;8539;53.188;8.696;2022-08-18T16:27:45;9.55;;;3.95;;
16845;SDS011;8539;53.188;8.696;2022-08-18T16:30:13;10.45;;;4.65;;
16845;SDS011;8539;53.188;8.696;2022-08-18T16:32:43;14.05;;;5.63;;
16845;SDS011;8539;53.188;8.696;2022-08-18T16:35:09;5.30;;;3.90;;
16845;SDS011;8539;53.188;8.696;2022-08-18T16:37:36;9.48;;;4.95;;
16845;SDS011;8539;53.188;8.696;2022-08-18T16:40:03;11.65;;;5.40;;
16845;SDS011;8539;53.188;8.696;2022-08-18T16:42:33;5.13;;;3.67;;
16845;SDS011;8539;53.188;8.696;2022-08-18T16:45:03;6.47;;;4.45;;
16845;SDS011;8539;53.188;8.696;2022-08-18T16:47:30;8.07;;;4.50;;
16845;SDS011;8539;53.188;8.696;2022-08-18T16:50:02;6.88;;;4.22;;
16845;SDS011;8539;53.188;8.696;2022-08-18T16:52:31;8.93;;;4.15;;
16845;SDS011;8539;53.188;8.696;2022-08-18T16:55:00;9.40;;;5.30;;
16845;SDS011;8539;53.188;8.696;2022-08-18T16:57:27;6.65;;;4.15;;
16845;SDS011;8539;53.188;8.696;2022-08-18T17:00:24;8.73;;;3.85;;
16845;SDS011;8539;53.188;8.696;2022-08-18T17:03:11;7.82;;;3.92;;
16845;SDS011;8539;53.188;8.696;2022-08-18T17:06:06;9.40;;;4.22;;
16845;SDS011;8539;53.188;8.696;2022-08-18T17:08:37;7.30;;;3.92;;
16845;SDS011;8539;53.188;8.696;2022-08-18T17:11:06;9.90;;;4.47;;
16845;SDS011;8539;53.188;8.696;2022-08-18T17:13:38;14.73;;;4.65;;
16845;SDS011;8539;53.188;8.696;2022-08-18T17:16:07;7.20;;;3.20;;
16845;SDS011;8539;53.188;8.696;2022-08-18T17:18:35;6.47;;;3.10;;
16845;SDS011;8539;53.188;8.696;2022-08-18T17:21:02;7.97;;;3.95;;
16845;SDS011;8539;53.188;8.696;2022-08-18T17:23:35;12.25;;;3.88;;
16845;SDS011;8539;53.188;8.696;2022-08-18T17:26:02;5.55;;;3.88;;
16845;SDS011;8539;53.188;8.696;2022-08-18T17:28:49;13.20;;;4.30;;
16845;SDS011;8539;53.188;8.696;2022-08-18T17:31:19;9.32;;;3.55;;
16845;SDS011;8539;53.188;8.696;2022-08-18T17:33:49;11.63;;;4.20;;
16845;SDS011;8539;53.188;8.696;2022-08-18T17:36:22;6.75;;;3.83;;
16845;SDS011;8539;53.188;8.696;2022-08-18T17:39:00;12.95;;;3.80;;
16845;SDS011;8539;53.188;8.696;2022-08-18T17:41:28;9.15;;;3.53;;
16845;SDS011;8539;53.188;8.696;2022-08-18T17:43:55;11.00;;;3.70;;
16845;SDS011;8539;53.188;8.696;2022-08-18T17:46:30;9.45;;;4.47;;
16845;SDS011;8539;53.188;8.696;2022-08-18T17:49:07;7.60;;;2.78;;
16845;SDS011;8539;53.188;8.696;2022-08-18T17:51:45;5.82;;;3.15;;
16845;SDS011;8539;53.188;8.696;2022-08-18T17:56:48;11.02;;;3.80;;
16845;SDS011;8539;53.188;8.696;2022-08-18T17:59:26;6.50;;;3.63;;
16845;SDS011;8539;53.188;8.696;2022-08-18T18:02:08;5.90;;;3.20;;
16845;SDS011;8539;53.188;8.696;2022-08-18T18:04:45;7.57;;;3.45;;
16845;SDS011;8539;53.188;8.696;2022-08-18T18:10:11;6.80;;;3.30;;
16845;SDS011;8539;53.188;8.696;2022-08-18T18:15:39;5.22;;;3.08;;
16845;SDS011;8539;53.188;8.696;2022-08-18T18:18:44;6.95;;;3.05;;